createdAt,value
2019-05-15T00:01:02.704Z,17.50
2019-05-15T00:03:28.945Z,17.60
2019-05-15T00:05:55.160Z,17.50
2019-05-15T00:08:21.390Z,17.50
2019-05-15T00:10:48.411Z,17.50
2019-05-15T00:13:13.822Z,17.60
2019-05-15T00:15:40.431Z,17.50
2019-05-15T00:18:08.716Z,17.50
2019-05-15T00:20:32.509Z,17.50
2019-05-15T00:22:58.877Z,17.50
2019-05-15T00:25:24.957Z,17.50
2019-05-15T00:27:51.191Z,17.50
2019-05-15T00:30:18.385Z,17.50
2019-05-15T00:32:43.597Z,17.50
2019-05-15T00:35:09.864Z,17.50
2019-05-15T00:37:38.422Z,17.50
2019-05-15T00:40:02.732Z,17.50
2019-05-15T00:42:28.961Z,17.50
2019-05-15T00:44:55.201Z,17.50
2019-05-15T00:47:21.433Z,17.50
2019-05-15T00:49:48.953Z,17.50
2019-05-15T00:52:15.103Z,17.50
2019-05-15T00:54:41.330Z,17.50
2019-05-15T00:57:08.528Z,17.50
2019-05-15T00:59:33.776Z,17.50
2019-05-15T01:01:59.999Z,17.50
2019-05-15T01:04:28.051Z,17.50
2019-05-15T01:06:52.826Z,17.40
2019-05-15T01:09:18.828Z,17.50
2019-05-15T01:11:44.916Z,17.40
2019-05-15T01:14:12.137Z,17.40
2019-05-15T01:16:38.308Z,17.50
2019-05-15T01:19:03.566Z,17.40
2019-05-15T01:21:29.834Z,17.50
2019-05-15T01:23:56.059Z,17.40
2019-05-15T01:26:22.286Z,17.40
2019-05-15T01:28:49.409Z,17.40
2019-05-15T01:31:14.757Z,17.40
2019-05-15T01:33:40.962Z,17.40
2019-05-15T01:36:08.644Z,17.40
2019-05-15T01:38:34.664Z,17.40
2019-05-15T01:41:00.873Z,17.40
2019-05-15T01:43:29.150Z,17.40
2019-05-15T01:45:53.330Z,17.50
2019-05-15T01:48:19.576Z,17.40
2019-05-15T01:50:45.789Z,17.40
2019-05-15T01:53:12.013Z,17.40
2019-05-15T01:55:39.395Z,17.40
2019-05-15T01:58:04.465Z,17.40
2019-05-15T02:00:30.714Z,17.40
2019-05-15T02:02:58.777Z,17.40
2019-05-15T02:05:23.560Z,17.40
2019-05-15T02:07:50.604Z,17.40
2019-05-15T02:10:18.647Z,17.40
2019-05-15T02:12:43.060Z,17.40
2019-05-15T02:15:09.287Z,17.40
2019-05-15T02:17:35.534Z,17.40
2019-05-15T02:20:01.751Z,17.40
2019-05-15T02:22:28.306Z,17.40
2019-05-15T02:24:54.212Z,17.40
2019-05-15T02:27:20.465Z,17.40
2019-05-15T02:29:46.661Z,17.40
2019-05-15T02:32:12.898Z,17.40
2019-05-15T02:34:39.673Z,17.40
2019-05-15T02:37:05.346Z,17.40
2019-05-15T02:39:31.583Z,17.40
2019-05-15T02:41:59.475Z,17.30
2019-05-15T02:44:24.031Z,17.40
2019-05-15T02:46:50.309Z,17.40
2019-05-15T02:49:19.034Z,17.40
2019-05-15T02:51:42.704Z,17.40
2019-05-15T02:54:10.200Z,17.40
2019-05-15T02:56:35.162Z,17.40
2019-05-15T02:59:01.390Z,17.30
2019-05-15T03:01:28.568Z,17.30
2019-05-15T03:03:53.841Z,17.30
2019-05-15T03:06:20.081Z,17.30
2019-05-15T03:08:49.274Z,17.30
2019-05-15T03:11:12.543Z,17.30
2019-05-15T03:13:39.990Z,17.30
2019-05-15T03:16:06.206Z,17.30
2019-05-15T03:18:32.464Z,17.30
2019-05-15T03:21:00.398Z,17.30
2019-05-15T03:23:24.897Z,17.30
2019-05-15T03:25:51.135Z,17.30
2019-05-15T03:28:19.049Z,17.30
2019-05-15T03:31:13.122Z,17.30
2019-05-15T03:33:17.808Z,17.30
2019-05-15T03:35:41.933Z,17.30
2019-05-15T03:38:02.265Z,17.30
2019-05-15T03:40:29.979Z,17.30
2019-05-15T03:42:55.167Z,17.30
2019-05-15T03:45:21.369Z,17.30
2019-05-15T03:47:49.182Z,17.30
2019-05-15T03:50:13.770Z,17.30
2019-05-15T03:52:40.142Z,17.30
2019-05-15T03:55:10.110Z,17.30
2019-05-15T03:57:32.519Z,17.30
2019-05-15T04:00:00.009Z,17.20
2019-05-15T04:02:28.772Z,17.30
2019-05-15T04:04:56.569Z,17.20
2019-05-15T04:07:18.922Z,17.20
2019-05-15T04:09:44.879Z,17.20
2019-05-15T04:12:11.121Z,17.20
2019-05-15T04:14:39.505Z,17.20
2019-05-15T04:17:03.963Z,17.20
2019-05-15T04:19:30.189Z,17.20
2019-05-15T04:21:59.763Z,17.20
2019-05-15T04:24:22.649Z,17.20
2019-05-15T04:26:48.990Z,17.20
2019-05-15T04:29:15.109Z,17.20
2019-05-15T04:31:55.710Z,17.20
2019-05-15T04:34:09.216Z,17.20
2019-05-15T04:36:33.775Z,17.20
2019-05-15T04:39:00.022Z,17.20
2019-05-15T04:41:26.242Z,17.20
2019-05-15T04:43:52.464Z,17.20
2019-05-15T04:46:19.887Z,17.20
2019-05-15T04:48:45.390Z,17.10
2019-05-15T04:51:11.564Z,17.20
2019-05-15T04:53:39.448Z,17.20
2019-05-15T04:56:04.017Z,17.20
2019-05-15T04:58:30.178Z,17.20
2019-05-15T05:00:59.561Z,17.20
2019-05-15T05:03:22.706Z,17.20
2019-05-15T05:05:49.894Z,17.20
2019-05-15T05:08:15.183Z,17.20
2019-05-15T05:10:41.391Z,17.20
2019-05-15T05:13:08.799Z,17.20
2019-05-15T05:15:33.845Z,17.20
2019-05-15T05:18:00.109Z,17.20
2019-05-15T05:20:28.352Z,17.20
2019-05-15T05:22:54.174Z,17.20
2019-05-15T05:25:20.393Z,17.20
2019-05-15T05:27:48.526Z,17.20
2019-05-15T05:30:12.864Z,17.20
2019-05-15T05:32:39.367Z,17.20
2019-05-15T05:35:05.315Z,17.20
2019-05-15T05:37:31.532Z,17.30
2019-05-15T05:39:57.804Z,17.30
2019-05-15T05:42:24.411Z,17.30
2019-05-15T05:44:50.633Z,17.30
2019-05-15T05:47:18.262Z,17.30
2019-05-15T05:49:43.099Z,17.30
2019-05-15T05:52:09.322Z,17.30
2019-05-15T05:54:38.109Z,17.30
2019-05-15T05:57:01.797Z,17.40
2019-05-15T05:59:28.413Z,17.40
2019-05-15T06:01:54.233Z,17.40
2019-05-15T06:04:20.460Z,17.40
2019-05-15T06:06:50.151Z,17.40
2019-05-15T06:09:12.912Z,17.40
2019-05-15T06:11:39.161Z,17.40
2019-05-15T06:14:05.395Z,17.40
2019-05-15T06:16:31.598Z,17.40
2019-05-15T06:18:58.738Z,17.40
2019-05-15T06:21:24.474Z,17.40
2019-05-15T06:23:55.595Z,17.40
2019-05-15T06:26:19.671Z,17.40
2019-05-15T06:28:43.569Z,17.40
2019-05-15T06:31:09.801Z,17.40
2019-05-15T06:33:38.435Z,17.40
2019-05-15T06:36:03.470Z,17.40
2019-05-15T06:38:30.838Z,17.50
2019-05-15T06:40:58.205Z,17.50
2019-05-15T06:43:22.163Z,17.50
2019-05-15T06:45:48.838Z,17.50
2019-05-15T06:48:15.019Z,17.50
2019-05-15T06:50:41.247Z,17.50
2019-05-15T06:53:10.130Z,17.50
2019-05-15T06:55:33.707Z,17.50
2019-05-15T06:57:59.948Z,17.50
2019-05-15T07:00:28.239Z,17.50
2019-05-15T07:02:52.394Z,17.50
2019-05-15T07:05:18.609Z,17.50
2019-05-15T07:07:44.838Z,17.50
2019-05-15T07:10:11.081Z,17.50
2019-05-15T07:12:39.269Z,17.50
2019-05-15T07:15:03.526Z,17.50
2019-05-15T07:17:29.754Z,17.60
2019-05-15T07:19:55.987Z,17.60
2019-05-15T07:22:22.213Z,17.50
2019-05-15T07:24:48.469Z,17.50
2019-05-15T07:27:14.660Z,17.50
2019-05-15T07:29:40.900Z,17.50
2019-05-15T07:32:08.085Z,17.50
2019-05-15T07:34:33.345Z,17.50
2019-05-15T07:36:59.572Z,17.50
2019-05-15T07:39:25.801Z,17.40
2019-05-15T07:41:52.029Z,17.40
2019-05-15T07:44:18.806Z,17.40
2019-05-15T07:46:44.493Z,17.50
2019-05-15T07:49:10.717Z,17.50
2019-05-15T07:51:38.199Z,17.50
2019-05-15T07:54:03.198Z,17.50
2019-05-15T07:56:29.397Z,17.50
2019-05-15T07:58:55.612Z,17.50
2019-05-15T08:01:21.852Z,17.50
2019-05-15T08:03:58.915Z,17.50
2019-05-15T08:06:14.220Z,17.50
2019-05-15T08:08:40.535Z,17.50
2019-05-15T08:11:19.584Z,17.50
2019-05-15T08:13:32.977Z,17.50
2019-05-15T08:15:59.241Z,17.50
2019-05-15T08:18:25.429Z,17.60
2019-05-15T08:20:51.677Z,17.60
2019-05-15T08:23:19.281Z,17.50
2019-05-15T08:25:44.122Z,17.50
2019-05-15T08:28:10.336Z,17.50
2019-05-15T08:30:38.781Z,17.50
2019-05-15T08:33:02.813Z,17.50
2019-05-15T08:35:30.249Z,17.50
2019-05-15T08:37:58.111Z,17.50
2019-05-15T08:40:22.700Z,17.50
2019-05-15T08:42:56.623Z,17.50
2019-05-15T08:45:15.557Z,17.50
2019-05-15T08:47:41.782Z,17.50
2019-05-15T08:50:08.865Z,17.50
2019-05-15T08:52:34.208Z,17.50
2019-05-15T08:55:00.505Z,17.50
2019-05-15T08:57:28.920Z,17.50
2019-05-15T08:59:52.918Z,17.50
2019-05-15T09:02:19.140Z,17.50
2019-05-15T09:04:45.374Z,17.50
2019-05-15T09:07:11.606Z,17.50
2019-05-15T09:09:38.333Z,17.50
2019-05-15T09:12:04.054Z,17.50
2019-05-15T09:14:30.285Z,17.50
2019-05-15T09:16:58.236Z,17.50
2019-05-15T09:19:22.737Z,17.50
2019-05-15T09:21:49.507Z,17.50
2019-05-15T09:24:15.586Z,17.50
2019-05-15T09:26:41.830Z,17.50
2019-05-15T09:29:09.370Z,17.50
2019-05-15T09:31:34.684Z,17.50
2019-05-15T09:34:00.909Z,17.50
2019-05-15T09:36:28.851Z,17.60
2019-05-15T09:38:53.358Z,17.60
2019-05-15T09:41:19.597Z,17.50
2019-05-15T09:43:45.815Z,17.50
2019-05-15T09:46:12.061Z,17.60
2019-05-15T09:48:39.044Z,17.60
2019-05-15T09:51:04.500Z,17.60
2019-05-15T09:53:30.741Z,17.60
2019-05-15T09:55:56.963Z,17.60
2019-05-15T09:58:23.180Z,17.60
2019-05-15T10:00:52.000Z,17.60
2019-05-15T10:03:15.636Z,17.60
2019-05-15T10:05:41.853Z,17.60
2019-05-15T10:08:08.905Z,17.50
2019-05-15T10:10:34.317Z,17.60
2019-05-15T10:13:00.552Z,17.60
2019-05-15T10:15:26.762Z,17.60
2019-05-15T10:17:53.004Z,17.60
2019-05-15T10:20:19.226Z,17.60
2019-05-15T10:22:45.456Z,17.60
2019-05-15T10:25:11.691Z,17.60
2019-05-15T10:27:39.755Z,17.60
2019-05-15T10:30:04.136Z,17.60
2019-05-15T10:32:32.288Z,17.60
2019-05-15T10:34:58.754Z,17.60
2019-05-15T10:37:24.889Z,17.60
2019-05-15T10:39:52.841Z,17.60
2019-05-15T10:42:19.357Z,17.60
2019-05-15T10:44:43.574Z,17.60
2019-05-15T10:47:09.819Z,17.60
2019-05-15T10:49:36.048Z,17.60
2019-05-15T10:52:02.258Z,17.60
2019-05-15T10:54:29.314Z,17.60
2019-05-15T10:56:54.726Z,17.60
2019-05-15T10:59:20.941Z,17.60
2019-05-15T11:01:48.775Z,17.60
2019-05-15T11:04:13.410Z,17.60
2019-05-15T11:06:39.636Z,17.60
2019-05-15T11:09:08.218Z,17.60
2019-05-15T11:11:32.083Z,17.60
2019-05-15T11:14:00.534Z,17.70
2019-05-15T11:16:24.553Z,17.70
2019-05-15T11:18:53.514Z,17.70
2019-05-15T11:21:18.981Z,17.70
2019-05-15T11:23:43.230Z,17.70
2019-05-15T11:26:09.457Z,17.60
2019-05-15T11:28:38.728Z,17.70
2019-05-15T11:31:01.949Z,17.70
2019-05-15T11:33:29.330Z,17.70
2019-05-15T11:36:00.492Z,17.70
2019-05-15T11:38:20.592Z,17.70
2019-05-15T11:40:46.833Z,17.70
2019-05-15T11:43:13.086Z,17.70
2019-05-15T11:45:39.327Z,17.70
2019-05-15T11:48:05.918Z,17.70
2019-05-15T11:50:32.154Z,17.70
2019-05-15T11:52:58.655Z,17.70
2019-05-15T11:55:24.618Z,17.70
2019-05-15T11:57:53.557Z,17.60
2019-05-15T12:00:25.665Z,17.70
2019-05-15T12:02:43.303Z,17.70
2019-05-15T12:05:09.943Z,17.70
2019-05-15T12:07:38.088Z,17.70
2019-05-15T12:10:02.400Z,17.70
2019-05-15T12:12:31.488Z,17.70
2019-05-15T12:14:54.852Z,17.70
2019-05-15T12:17:21.073Z,17.70
2019-05-15T12:19:54.989Z,17.70
2019-05-15T12:22:13.593Z,17.70
2019-05-15T12:24:40.652Z,17.80
2019-05-15T12:29:32.216Z,17.70
2019-05-15T12:32:00.950Z,17.80
2019-05-15T12:34:24.669Z,17.70
2019-05-15T12:36:57.483Z,17.70
2019-05-15T12:39:21.830Z,17.80
2019-05-15T12:39:23.622Z,17.80
2019-05-15T13:01:17.750Z,17.80
2019-05-15T13:03:40.237Z,17.80
2019-05-15T13:06:08.110Z,17.80
2019-05-15T13:08:32.765Z,17.80
2019-05-15T13:10:58.923Z,17.80
2019-05-15T13:13:25.151Z,17.80
2019-05-15T13:15:51.376Z,17.80
2019-05-15T13:18:18.192Z,17.80
2019-05-15T13:20:44.661Z,17.80
2019-05-15T13:23:10.897Z,17.80
2019-05-15T13:25:39.463Z,17.80
2019-05-15T13:28:03.354Z,17.80
2019-05-15T13:30:30.108Z,17.80
2019-05-15T13:32:58.587Z,17.80
2019-05-15T13:35:22.031Z,17.80
2019-05-15T13:37:49.539Z,17.90
2019-05-15T13:40:14.898Z,17.90
2019-05-15T13:42:41.122Z,17.90
2019-05-15T13:45:12.164Z,17.90
2019-05-15T13:47:33.990Z,17.90
2019-05-15T13:50:00.216Z,17.90
2019-05-15T13:52:28.329Z,17.90
2019-05-15T13:54:52.678Z,17.90
2019-05-15T13:57:18.922Z,17.90
2019-05-15T13:59:45.147Z,17.90
2019-05-15T14:02:11.353Z,17.90
2019-05-15T14:04:38.668Z,17.90
2019-05-15T14:07:03.817Z,17.90
2019-05-15T14:09:33.395Z,17.90
2019-05-15T14:11:59.421Z,17.90
2019-05-15T14:14:23.346Z,17.90
2019-05-15T14:16:49.553Z,17.90
2019-05-15T14:19:15.776Z,17.90
2019-05-15T14:21:42.022Z,17.90
2019-05-15T14:24:08.944Z,17.90
2019-05-15T14:26:34.469Z,17.90
2019-05-15T14:29:00.689Z,18.00
2019-05-15T14:31:28.492Z,17.90
2019-05-15T14:33:53.145Z,18.00
2019-05-15T14:36:19.894Z,18.00
2019-05-15T14:38:48.358Z,18.00
2019-05-15T14:41:12.657Z,18.00
2019-05-15T14:43:38.885Z,18.00
2019-05-15T14:46:05.131Z,18.00
2019-05-15T14:48:31.356Z,18.00
2019-05-15T14:50:58.376Z,18.00
2019-05-15T14:53:23.805Z,18.00
2019-05-15T14:55:50.109Z,18.00
2019-05-15T14:58:19.512Z,18.00
2019-05-15T15:00:42.531Z,18.00
2019-05-15T15:03:09.743Z,18.00
2019-05-15T15:05:35.054Z,18.00
2019-05-15T15:08:17.078Z,18.00
2019-05-15T15:10:29.156Z,18.10
2019-05-15T15:12:54.037Z,18.10
2019-05-15T15:15:20.263Z,18.10
2019-05-15T15:17:49.058Z,18.10
2019-05-15T15:20:12.728Z,18.10
2019-05-15T15:22:39.703Z,18.10
2019-05-15T15:25:05.174Z,18.10
2019-05-15T15:27:31.407Z,18.10
2019-05-15T15:29:58.032Z,18.10
2019-05-15T15:32:23.878Z,18.10
2019-05-15T15:34:50.096Z,18.10
2019-05-15T15:37:17.214Z,18.10
2019-05-15T15:39:43.770Z,18.10
2019-05-15T15:42:10.007Z,18.20
2019-05-15T15:44:38.004Z,18.20
2019-05-15T15:47:02.465Z,18.20
2019-05-15T15:49:28.680Z,18.20
2019-05-15T15:51:54.911Z,18.20
2019-05-15T15:54:21.142Z,18.20
2019-05-15T15:56:48.580Z,18.20
2019-05-15T15:59:13.595Z,18.20
2019-05-15T16:01:39.830Z,18.20
2019-05-15T16:04:08.352Z,18.20
2019-05-15T16:06:32.293Z,18.20
2019-05-15T16:08:59.575Z,18.20
2019-05-15T16:11:24.739Z,18.20
2019-05-15T16:13:50.956Z,18.20
2019-05-15T16:16:17.923Z,18.20
2019-05-15T16:18:43.825Z,18.20
2019-05-15T16:21:10.052Z,18.20
2019-05-15T16:23:38.421Z,18.20
2019-05-15T16:26:02.512Z,18.20
2019-05-15T16:28:29.092Z,18.20
2019-05-15T16:30:54.976Z,18.20
2019-05-15T16:33:21.190Z,18.20
2019-05-15T16:35:48.823Z,18.20
2019-05-15T16:38:13.645Z,18.20
2019-05-15T16:40:39.873Z,18.20
2019-05-15T16:43:06.038Z,18.20
2019-05-15T16:45:32.343Z,18.20
2019-05-15T16:47:58.758Z,18.20
2019-05-15T16:50:24.785Z,18.20
2019-05-15T16:52:51.023Z,18.20
2019-05-15T16:55:17.254Z,18.20
2019-05-15T16:57:43.465Z,18.20
2019-05-15T17:00:10.020Z,18.20
2019-05-15T17:02:35.954Z,18.20
2019-05-15T17:05:02.160Z,18.20
2019-05-15T17:07:29.008Z,18.20
2019-05-15T17:09:54.601Z,18.20
2019-05-15T17:12:20.829Z,18.30
2019-05-15T17:14:48.622Z,18.30
2019-05-15T17:17:13.280Z,18.20
2019-05-15T17:19:39.518Z,18.20
2019-05-15T17:22:05.736Z,18.20
2019-05-15T17:24:31.969Z,18.20
2019-05-15T17:26:59.609Z,18.20
2019-05-15T17:29:24.424Z,18.20
2019-05-15T17:31:51.063Z,18.20
2019-05-15T17:34:17.987Z,18.20
2019-05-15T17:36:43.513Z,18.20
2019-05-15T17:39:09.762Z,18.20
2019-05-15T17:41:35.917Z,18.20
2019-05-15T17:44:02.191Z,18.30
2019-05-15T17:46:29.716Z,18.30
2019-05-15T17:48:56.850Z,18.20
2019-05-15T17:51:21.299Z,18.20
2019-05-15T17:53:48.842Z,18.20
2019-05-15T17:56:13.728Z,18.20
2019-05-15T17:58:39.966Z,18.20
2019-05-15T18:01:08.552Z,18.20
2019-05-15T18:03:32.427Z,18.20
2019-05-15T18:05:59.293Z,18.20
2019-05-15T18:08:25.280Z,18.20
2019-05-15T18:10:51.508Z,18.20
2019-05-15T18:13:17.752Z,18.20
2019-05-15T18:15:43.964Z,18.20
2019-05-15T18:18:10.260Z,18.20
2019-05-15T18:20:38.326Z,18.20
2019-05-15T18:23:03.462Z,18.20
2019-05-15T18:25:29.690Z,18.20
2019-05-15T18:27:55.922Z,18.20
2019-05-15T18:30:22.161Z,18.20
2019-05-15T18:32:48.957Z,18.20
2019-05-15T18:35:15.016Z,18.20
2019-05-15T18:37:41.232Z,18.20
2019-05-15T18:40:09.827Z,18.20
2019-05-15T18:42:33.702Z,18.20
2019-05-15T18:44:59.909Z,18.20
2019-05-15T18:47:28.017Z,18.20
2019-05-15T18:50:04.054Z,18.20
2019-05-15T18:52:18.613Z,18.20
2019-05-15T18:54:44.826Z,18.20
2019-05-15T18:57:11.051Z,18.20
2019-05-15T18:59:37.284Z,18.20
2019-05-15T19:02:03.521Z,18.20
2019-05-15T19:04:29.736Z,18.20
2019-05-15T19:06:58.179Z,18.20
2019-05-15T19:09:22.172Z,18.20
2019-05-15T19:11:48.770Z,18.20
2019-05-15T19:14:14.661Z,18.10
2019-05-15T19:16:40.864Z,18.10
2019-05-15T19:19:07.832Z,18.20
2019-05-15T19:21:33.776Z,18.10
2019-05-15T19:24:00.363Z,18.20
2019-05-15T19:26:28.811Z,18.10
2019-05-15T19:28:53.226Z,18.10
2019-05-15T19:31:26.753Z,18.10
2019-05-15T19:33:45.674Z,18.10
2019-05-15T19:36:11.934Z,18.10
2019-05-15T19:38:38.138Z,18.10
2019-05-15T19:41:06.522Z,18.10
2019-05-15T19:43:30.984Z,18.10
2019-05-15T19:45:58.472Z,18.10
2019-05-15T19:48:23.457Z,18.10
2019-05-15T19:50:49.669Z,18.10
2019-05-15T19:53:15.909Z,18.10
2019-05-15T19:55:42.129Z,18.10
2019-05-15T19:58:08.780Z,18.10
2019-05-15T20:00:34.588Z,18.10
2019-05-15T20:03:00.821Z,18.10
2019-05-15T20:05:28.969Z,18.10
2019-05-15T20:07:53.262Z,18.10
2019-05-15T20:10:19.483Z,18.10
2019-05-15T20:12:47.856Z,18.10
2019-05-15T20:15:11.946Z,18.10
2019-05-15T20:17:38.852Z,18.10
2019-05-15T20:20:04.399Z,18.10
2019-05-15T20:22:30.623Z,18.10
2019-05-15T20:24:58.783Z,18.10
2019-05-15T20:27:23.073Z,18.10
2019-05-15T20:29:49.293Z,18.10
2019-05-15T20:32:15.517Z,18.10
2019-05-15T20:34:41.741Z,18.00
2019-05-15T20:37:09.197Z,18.00
2019-05-15T20:39:35.434Z,18.00
2019-05-15T20:42:01.605Z,18.10
2019-05-15T20:44:27.757Z,18.10
2019-05-15T20:46:54.114Z,18.10
2019-05-15T20:49:20.345Z,18.10
2019-05-15T20:51:48.757Z,18.00
2019-05-15T20:54:12.783Z,18.00
2019-05-15T20:56:39.014Z,18.00
2019-05-15T20:59:05.236Z,18.00
2019-05-15T21:01:31.460Z,18.00
2019-05-15T21:03:59.451Z,18.00
2019-05-15T21:06:23.917Z,18.10
2019-05-15T21:08:50.177Z,18.00
2019-05-15T21:11:18.067Z,18.00
2019-05-15T21:13:42.592Z,18.00
2019-05-15T21:16:08.840Z,18.00
2019-05-15T21:18:35.058Z,18.00
2019-05-15T21:21:01.288Z,18.00
2019-05-15T21:23:28.530Z,18.00
2019-05-15T21:25:53.738Z,18.00
2019-05-15T21:28:19.952Z,18.00
2019-05-15T21:30:48.806Z,18.00
2019-05-15T21:33:12.412Z,18.00
2019-05-15T21:35:38.668Z,18.00
2019-05-15T21:38:04.865Z,18.00
2019-05-15T21:40:31.920Z,18.00
2019-05-15T21:42:58.238Z,17.90
2019-05-15T21:45:24.357Z,18.00
2019-05-15T21:47:50.583Z,18.00
2019-05-15T21:50:19.058Z,18.00
2019-05-15T21:52:43.051Z,18.00
2019-05-15T21:55:09.812Z,17.90
2019-05-15T21:57:37.276Z,17.90
2019-05-15T22:00:02.138Z,18.00
2019-05-15T22:02:29.664Z,17.90
2019-05-15T22:04:56.135Z,18.00
2019-05-15T22:07:21.634Z,17.90
2019-05-15T22:09:48.735Z,17.90
2019-05-15T22:12:14.086Z,17.90
2019-05-15T22:14:40.296Z,17.90
2019-05-15T22:17:09.064Z,17.90
2019-05-15T22:19:32.756Z,17.90
2019-05-15T22:21:58.985Z,17.90
2019-05-15T22:24:25.224Z,17.90
2019-05-15T22:26:51.446Z,17.90
2019-05-15T22:29:17.738Z,17.90
2019-05-15T22:31:43.897Z,17.90
2019-05-15T22:34:10.104Z,17.90
2019-05-15T22:36:36.350Z,17.90
2019-05-15T22:39:02.576Z,17.90
2019-05-15T22:41:28.789Z,17.90
2019-05-15T22:43:55.020Z,17.90
2019-05-15T22:46:21.244Z,17.90
2019-05-15T22:48:48.611Z,17.90
2019-05-15T22:51:13.700Z,17.90
2019-05-15T22:53:39.930Z,17.90
2019-05-15T22:56:06.145Z,17.90
2019-05-15T22:58:32.369Z,17.90
2019-05-15T23:00:59.786Z,17.90
2019-05-15T23:03:24.829Z,17.90
2019-05-15T23:05:51.053Z,17.90
2019-05-15T23:08:18.438Z,17.90
2019-05-15T23:10:43.509Z,17.80
2019-05-15T23:13:09.738Z,17.90
2019-05-15T23:15:38.382Z,17.90
2019-05-15T23:18:02.197Z,17.90
2019-05-15T23:20:28.753Z,17.90
2019-05-15T23:22:54.652Z,17.90
2019-05-15T23:25:20.869Z,17.80
2019-05-15T23:27:48.423Z,17.80
2019-05-15T23:30:13.317Z,17.90
2019-05-15T23:32:39.553Z,17.90
2019-05-15T23:35:05.782Z,17.80
2019-05-15T23:37:31.997Z,17.80
2019-05-15T23:39:58.231Z,17.80
2019-05-15T23:42:24.467Z,17.80
2019-05-15T23:44:50.699Z,17.80
2019-05-15T23:47:17.991Z,17.80
2019-05-15T23:49:43.127Z,17.80
2019-05-15T23:52:09.344Z,17.80
2019-05-15T23:54:35.590Z,17.80
2019-05-15T23:57:01.827Z,17.80
2019-05-15T23:59:28.247Z,17.80
